createdAt,value
2023-02-19T00:00:29.280Z,98626.84
2023-02-19T00:01:35.518Z,98624.25
2023-02-19T00:02:37.051Z,98624.59
2023-02-19T00:03:38.719Z,98621.31
2023-02-19T00:04:40.368Z,98623.69
2023-02-19T00:05:41.899Z,98623.41
2023-02-19T00:06:43.847Z,98626.28
2023-02-19T00:07:45.394Z,98621.53
2023-02-19T00:08:46.897Z,98622.25
2023-02-19T00:09:48.382Z,98622.59
2023-02-19T00:10:49.867Z,98629.81
2023-02-19T00:11:51.397Z,98624.25
2023-02-19T00:12:52.986Z,98625.50
2023-02-19T00:13:55.527Z,98626.34
2023-02-19T00:14:58.440Z,98622.13
2023-02-19T00:16:00.570Z,98621.50
2023-02-19T00:17:02.454Z,98621.06
2023-02-19T00:18:04.107Z,98617.78
2023-02-19T00:19:07.135Z,98610.84
2023-02-19T00:20:09.112Z,98610.69
2023-02-19T00:21:10.993Z,98621.06
2023-02-19T00:22:12.760Z,98625.91
2023-02-19T00:23:14.322Z,98619.19
2023-02-19T00:24:15.866Z,98622.50
2023-02-19T00:25:17.379Z,98610.25
2023-02-19T00:26:19.111Z,98619.78
2023-02-19T00:27:20.707Z,98624.25
2023-02-19T00:28:22.452Z,98610.94
2023-02-19T00:29:25.064Z,98618.38
2023-02-19T00:30:26.635Z,98616.38
2023-02-19T00:31:33.341Z,98612.13
2023-02-19T00:32:35.435Z,98615.19
2023-02-19T00:33:37.002Z,98612.25
2023-02-19T00:34:38.530Z,98607.41
2023-02-19T00:35:40.133Z,98614.38
2023-02-19T00:36:41.928Z,98617.44
2023-02-19T00:37:43.719Z,98610.38
2023-02-19T00:38:45.206Z,98611.06
2023-02-19T00:39:46.831Z,98603.97
2023-02-19T00:40:48.350Z,98607.28
2023-02-19T00:41:50.313Z,98609.38
2023-02-19T00:42:52.310Z,98602.34
2023-02-19T00:43:55.127Z,98593.97
2023-02-19T00:44:56.616Z,98599.28
2023-02-19T00:45:58.126Z,98601.75
2023-02-19T00:46:59.650Z,98600.22
2023-02-19T00:48:01.191Z,98598.47
2023-02-19T00:49:02.783Z,98605.28
2023-02-19T00:50:04.372Z,98598.22
2023-02-19T00:51:05.852Z,98597.16
2023-02-19T00:52:07.387Z,98592.47
2023-02-19T00:53:08.907Z,98588.94
2023-02-19T00:54:10.462Z,98593.06
2023-02-19T00:55:11.949Z,98595.50
2023-02-19T00:56:13.491Z,98590.47
2023-02-19T00:57:15.123Z,98591.88
2023-02-19T00:58:16.623Z,98591.88
2023-02-19T00:59:18.120Z,98589.88
2023-02-19T01:00:19.816Z,98592.47
2023-02-19T01:01:21.453Z,98580.81
2023-02-19T01:02:22.989Z,98578.94
2023-02-19T01:03:24.759Z,98552.91
2023-02-19T01:04:26.334Z,98574.81
2023-02-19T01:05:27.880Z,98587.75
2023-02-19T01:06:30.743Z,98581.03
2023-02-19T01:07:32.256Z,98582.34
2023-02-19T01:08:33.948Z,98591.28
2023-02-19T01:09:35.452Z,98583.84
2023-02-19T01:10:36.907Z,98576.44
2023-02-19T01:11:38.456Z,98579.38
2023-02-19T01:12:39.964Z,98581.25
2023-02-19T01:13:41.662Z,98583.84
2023-02-19T01:14:43.168Z,98596.47
2023-02-19T01:15:44.850Z,98581.16
2023-02-19T01:16:46.337Z,98578.94
2023-02-19T01:17:47.822Z,98577.97
2023-02-19T01:18:49.370Z,98574.94
2023-02-19T01:19:50.953Z,98579.25
2023-02-19T01:20:52.449Z,98571.88
2023-02-19T01:21:53.938Z,98581.88
2023-02-19T01:22:55.455Z,98574.66
2023-02-19T01:23:57.342Z,98576.22
2023-02-19T01:24:58.866Z,98569.97
2023-02-19T01:26:00.674Z,98571.84
2023-02-19T01:27:02.199Z,98570.88
2023-02-19T01:28:03.752Z,98569.16
2023-02-19T01:29:05.233Z,98566.09
2023-02-19T01:30:07.149Z,98561.03
2023-02-19T01:31:11.856Z,98563.50
2023-02-19T01:32:13.585Z,98549.97
2023-02-19T01:33:15.133Z,98544.41
2023-02-19T01:34:16.614Z,98545.38
2023-02-19T01:35:18.108Z,98543.81
2023-02-19T01:36:19.727Z,98541.69
2023-02-19T01:37:21.221Z,98535.22
2023-02-19T01:38:22.835Z,98539.72
2023-02-19T01:39:24.320Z,98540.03
2023-02-19T01:40:26.412Z,98543.72
2023-02-19T01:41:27.892Z,98542.44
2023-02-19T01:42:29.395Z,98540.41
2023-02-19T01:43:34.628Z,98527.72
2023-02-19T01:44:35.977Z,98534.25
2023-02-19T01:45:39.406Z,98522.16
2023-02-19T01:46:42.257Z,98527.72
2023-02-19T01:47:43.785Z,98509.69
2023-02-19T01:48:45.290Z,98525.47
2023-02-19T01:49:52.533Z,98533.59
2023-02-19T01:51:05.805Z,98516.34
2023-02-19T01:52:16.357Z,98525.47
2023-02-19T01:53:19.566Z,98526.75
2023-02-19T01:54:22.041Z,98527.13
2023-02-19T01:55:23.631Z,98514.94
2023-02-19T01:56:25.492Z,98526.50
2023-02-19T01:57:28.589Z,98516.06
2023-02-19T01:58:32.022Z,98511.69
2023-02-19T01:59:33.578Z,98516.97
2023-02-19T02:00:35.218Z,98512.28
2023-02-19T02:01:37.779Z,98511.81
2023-02-19T02:02:40.043Z,98521.00
2023-02-19T02:03:42.446Z,98513.34
2023-02-19T02:04:44.104Z,98517.72
2023-02-19T02:05:59.461Z,98516.53
2023-02-19T02:07:02.262Z,98512.38
2023-02-19T02:08:22.594Z,98518.75
2023-02-19T02:09:45.715Z,98531.25
2023-02-19T02:10:47.174Z,98527.47
2023-02-19T02:11:49.948Z,98537.31
2023-02-19T02:12:53.097Z,98524.19
2023-02-19T02:13:54.648Z,98524.28
2023-02-19T02:14:56.152Z,98523.72
2023-02-19T02:16:11.577Z,98517.13
2023-02-19T02:17:31.644Z,98517.13
2023-02-19T02:18:54.693Z,98519.00
2023-02-19T02:20:14.576Z,98508.41
2023-02-19T02:21:34.888Z,98508.78
2023-02-19T02:22:43.460Z,98508.88
2023-02-19T02:23:57.006Z,98503.59
2023-02-19T02:25:10.490Z,98507.69
2023-02-19T02:26:31.271Z,98504.78
2023-02-19T02:27:44.413Z,98506.06
2023-02-19T02:28:57.834Z,98512.41
2023-02-19T02:30:16.084Z,98506.06
2023-02-19T02:31:25.609Z,98505.81
2023-02-19T02:32:30.603Z,98490.59
2023-02-19T02:33:39.695Z,98496.97
2023-02-19T02:34:41.960Z,98498.97
2023-02-19T02:35:53.047Z,98493.13
2023-02-19T02:36:55.569Z,98501.28
2023-02-19T02:38:00.024Z,98510.00
2023-02-19T02:39:03.367Z,98505.69
2023-02-19T02:40:05.473Z,98493.69
2023-02-19T02:41:07.001Z,98502.03
2023-02-19T02:42:27.246Z,98495.81
2023-02-19T02:43:28.771Z,98500.00
2023-02-19T02:44:36.806Z,98492.00
2023-02-19T02:45:39.797Z,98484.59
2023-02-19T02:46:42.324Z,98484.88
2023-02-19T02:47:49.650Z,98489.63
2023-02-19T02:48:53.885Z,98460.16
2023-02-19T02:50:07.483Z,98487.56
2023-02-19T02:51:29.226Z,98491.72
2023-02-19T02:52:52.943Z,98492.31
2023-02-19T02:54:30.442Z,98487.28
2023-02-19T02:55:34.537Z,98487.63
2023-02-19T02:56:36.063Z,98487.31
2023-02-19T02:57:37.574Z,98487.97
2023-02-19T02:58:39.107Z,98481.06
2023-02-19T02:59:40.650Z,98479.78
2023-02-19T03:01:02.535Z,98474.47
2023-02-19T03:02:13.964Z,98480.28
2023-02-19T03:03:15.708Z,98475.56
2023-02-19T03:04:24.834Z,98477.13
2023-02-19T03:05:44.639Z,98481.09
2023-02-19T03:06:46.127Z,98468.03
2023-02-19T03:07:50.141Z,98473.44
2023-02-19T03:09:14.310Z,98462.75
2023-02-19T03:10:18.351Z,98471.31
2023-02-19T03:11:38.379Z,98458.16
2023-02-19T03:12:58.588Z,98465.47
2023-02-19T03:14:18.807Z,98471.94
2023-02-19T03:15:38.778Z,98471.75
2023-02-19T03:16:58.945Z,98469.38
2023-02-19T03:18:21.406Z,98470.34
2023-02-19T03:19:23.358Z,98468.41
2023-02-19T03:20:24.895Z,98465.91
2023-02-19T03:21:26.388Z,98463.59
2023-02-19T03:22:33.411Z,98457.84
2023-02-19T03:23:54.034Z,98464.34
2023-02-19T03:25:18.769Z,98461.88
2023-02-19T03:26:20.373Z,98466.34
2023-02-19T03:27:21.863Z,98468.94
2023-02-19T03:28:45.137Z,98459.72
2023-02-19T03:29:47.003Z,98474.28
2023-02-19T03:30:50.765Z,98461.66
2023-02-19T03:31:57.599Z,98458.47
2023-02-19T03:33:08.740Z,98450.13
2023-02-19T03:34:12.252Z,98460.34
2023-02-19T03:35:17.046Z,98457.53
2023-02-19T03:36:20.727Z,98450.94
2023-02-19T03:37:27.161Z,98451.19
2023-02-19T03:38:39.522Z,98459.09
2023-02-19T03:39:47.134Z,98445.56
2023-02-19T03:40:54.159Z,98451.19
2023-02-19T03:41:55.557Z,98453.19
2023-02-19T03:43:38.316Z,98441.09
2023-02-19T03:44:42.331Z,98449.56
2023-02-19T03:46:01.792Z,98449.00
2023-02-19T03:47:03.553Z,98445.56
2023-02-19T03:48:08.075Z,98445.84
2023-02-19T03:49:29.968Z,98448.56
2023-02-19T03:50:40.214Z,98443.03
2023-02-19T03:51:48.494Z,98455.47
2023-02-19T03:52:49.874Z,98454.50
2023-02-19T03:54:02.621Z,98435.44
2023-02-19T03:55:53.050Z,98450.22
2023-02-19T03:57:00.667Z,98447.53
2023-02-19T03:58:06.162Z,98459.72
2023-02-19T03:59:38.667Z,98445.16
2023-02-19T04:00:44.910Z,98446.81
2023-02-19T04:01:55.357Z,98456.16
2023-02-19T04:03:00.007Z,98440.28
2023-02-19T04:04:04.817Z,98451.78
2023-02-19T04:05:14.746Z,98444.63
2023-02-19T04:06:22.585Z,98446.28
2023-02-19T04:07:24.150Z,98453.28
2023-02-19T04:08:25.662Z,98450.31
2023-02-19T04:09:30.744Z,98470.09
2023-02-19T04:10:32.308Z,98448.56
2023-02-19T04:11:33.867Z,98429.94
2023-02-19T04:12:37.217Z,98454.09
2023-02-19T04:14:09.352Z,98447.72
2023-02-19T04:15:12.683Z,98448.88
2023-02-19T04:16:18.475Z,98452.63
2023-02-19T04:17:23.695Z,98466.97
2023-02-19T04:18:26.550Z,98459.09
2023-02-19T04:19:28.169Z,98458.25
2023-02-19T04:20:32.152Z,98458.50
2023-02-19T04:21:33.784Z,98456.47
2023-02-19T04:22:36.037Z,98466.25
2023-02-19T04:23:40.676Z,98453.16
2023-02-19T04:24:45.118Z,98452.34
2023-02-19T04:25:47.807Z,98450.75
2023-02-19T04:26:49.283Z,98449.28
2023-02-19T04:27:50.775Z,98451.56
2023-02-19T04:28:52.261Z,98451.09
2023-02-19T04:29:54.119Z,98450.03
2023-02-19T04:30:55.686Z,98447.31
2023-02-19T04:31:57.227Z,98450.25
2023-02-19T04:32:58.730Z,98458.16
2023-02-19T04:34:00.279Z,98463.66
2023-02-19T04:35:01.797Z,98457.34
2023-02-19T04:36:03.387Z,98464.72
2023-02-19T04:37:05.021Z,98459.56
2023-02-19T04:38:06.594Z,98459.09
2023-02-19T04:39:08.685Z,98464.16
2023-02-19T04:40:10.594Z,98462.59
2023-02-19T04:41:12.423Z,98460.09
2023-02-19T04:42:14.126Z,98455.31
2023-02-19T04:43:15.668Z,98460.25
2023-02-19T04:44:17.622Z,98460.38
2023-02-19T04:45:19.226Z,98434.63
2023-02-19T04:46:20.805Z,98452.81
2023-02-19T04:47:22.330Z,98464.47
2023-02-19T04:48:23.853Z,98472.72
2023-02-19T04:49:25.669Z,98465.03
2023-02-19T04:50:27.235Z,98473.38
2023-02-19T04:51:28.861Z,98469.81
2023-02-19T04:52:30.507Z,98478.06
2023-02-19T04:53:32.004Z,98472.56
2023-02-19T04:54:33.542Z,98481.94
2023-02-19T04:55:38.693Z,98487.81
2023-02-19T04:56:40.328Z,98474.75
2023-02-19T04:57:41.829Z,98470.97
2023-02-19T04:58:43.875Z,98468.72
2023-02-19T04:59:46.819Z,98466.13
2023-02-19T05:00:51.250Z,98480.41
2023-02-19T05:01:52.768Z,98467.34
2023-02-19T05:02:54.328Z,98467.97
2023-02-19T05:03:56.032Z,98454.81
2023-02-19T05:04:57.546Z,98465.75
2023-02-19T05:06:02.549Z,98460.09
2023-02-19T05:07:04.052Z,98463.84
2023-02-19T05:08:05.669Z,98469.31
2023-02-19T05:09:07.499Z,98471.69
2023-02-19T05:10:09.063Z,98479.59
2023-02-19T05:11:11.620Z,98465.47
2023-02-19T05:12:13.289Z,98464.50
2023-02-19T05:13:14.845Z,98456.38
2023-02-19T05:14:17.626Z,98459.47
2023-02-19T05:15:19.461Z,98463.59
2023-02-19T05:16:21.029Z,98465.91
2023-02-19T05:17:22.529Z,98463.91
2023-02-19T05:18:25.671Z,98468.00
2023-02-19T05:19:27.533Z,98466.97
2023-02-19T05:20:29.064Z,98464.47
2023-02-19T05:21:30.593Z,98462.00
2023-02-19T05:22:32.164Z,98459.53
2023-02-19T05:23:33.668Z,98455.91
2023-02-19T05:24:35.486Z,98462.25
2023-02-19T05:25:36.982Z,98457.28
2023-02-19T05:26:38.457Z,98467.53
2023-02-19T05:27:40.178Z,98463.06
2023-02-19T05:28:42.007Z,98457.91
2023-02-19T05:29:43.478Z,98453.88
2023-02-19T05:30:46.447Z,98458.97
2023-02-19T05:31:48.996Z,98453.13
2023-02-19T05:32:50.654Z,98456.53
2023-02-19T05:33:53.234Z,98465.31
2023-02-19T05:34:54.718Z,98451.69
2023-02-19T05:35:56.260Z,98460.88
2023-02-19T05:36:57.914Z,98453.34
2023-02-19T05:37:59.660Z,98458.75
2023-02-19T05:39:01.212Z,98462.50
2023-02-19T05:40:02.710Z,98464.59
2023-02-19T05:41:11.602Z,98462.94
2023-02-19T05:42:13.652Z,98468.97
2023-02-19T05:43:15.227Z,98462.75
2023-02-19T05:44:17.234Z,98468.44
2023-02-19T05:45:18.739Z,98472.91
2023-02-19T05:46:21.766Z,98479.28
2023-02-19T05:47:23.326Z,98474.19
2023-02-19T05:48:24.843Z,98485.47
2023-02-19T05:49:27.532Z,98482.28
2023-02-19T05:50:29.395Z,98483.34
2023-02-19T05:51:30.979Z,98478.16
2023-02-19T05:52:33.041Z,98484.88
2023-02-19T05:53:34.546Z,98474.41
2023-02-19T05:54:36.079Z,98476.97
2023-02-19T05:55:37.580Z,98485.69
2023-02-19T05:56:39.950Z,98481.47
2023-02-19T05:57:45.713Z,98481.69
2023-02-19T05:58:47.687Z,98481.47
2023-02-19T05:59:49.224Z,98487.13
2023-02-19T06:00:50.948Z,98484.03
2023-02-19T06:01:53.480Z,98485.09
2023-02-19T06:02:55.046Z,98484.59
2023-02-19T06:03:57.873Z,98470.00
2023-02-19T06:04:59.418Z,98474.88
2023-02-19T06:06:00.761Z,98475.00
2023-02-19T06:07:02.190Z,98487.13
2023-02-19T06:08:03.824Z,98484.41
2023-02-19T06:09:05.755Z,98489.81
2023-02-19T06:10:07.885Z,98497.19
2023-02-19T06:11:09.708Z,98493.34
2023-02-19T06:12:11.349Z,98495.69
2023-02-19T06:13:12.885Z,98493.81
2023-02-19T06:14:14.557Z,98480.31
2023-02-19T06:15:16.140Z,98493.16
2023-02-19T06:16:18.385Z,98491.16
2023-02-19T06:17:19.975Z,98499.22
2023-02-19T06:18:21.556Z,98493.31
2023-02-19T06:19:23.034Z,98502.16
2023-02-19T06:20:26.294Z,98502.28
2023-02-19T06:21:27.995Z,98517.59
2023-02-19T06:22:29.487Z,98500.97
2023-02-19T06:23:31.385Z,98498.88
2023-02-19T06:24:33.106Z,98504.63
2023-02-19T06:25:34.587Z,98504.78
2023-02-19T06:26:36.193Z,98511.94
2023-02-19T06:27:37.819Z,98517.13
2023-02-19T06:28:39.573Z,98513.56
2023-02-19T06:29:41.202Z,98516.88
2023-02-19T06:30:42.712Z,98511.69
2023-02-19T06:31:44.891Z,98506.91
2023-02-19T06:32:46.524Z,98522.50
2023-02-19T06:33:48.429Z,98520.03
2023-02-19T06:34:50.013Z,98516.88
2023-02-19T06:35:51.560Z,98522.63
2023-02-19T06:36:53.060Z,98529.47
2023-02-19T06:37:54.541Z,98522.50
2023-02-19T06:38:59.691Z,98523.00
2023-02-19T06:40:01.276Z,98521.47
2023-02-19T06:41:03.772Z,98527.81
2023-02-19T06:42:05.321Z,98529.47
2023-02-19T06:43:06.869Z,98533.22
2023-02-19T06:44:08.417Z,98528.31
2023-02-19T06:45:09.911Z,98529.59
2023-02-19T06:46:11.676Z,98531.44
2023-02-19T06:47:13.363Z,98529.63
2023-02-19T06:48:14.883Z,98535.47
2023-02-19T06:49:16.454Z,98524.63
2023-02-19T06:50:17.962Z,98540.66
2023-02-19T06:51:22.593Z,98519.13
2023-02-19T06:52:24.087Z,98539.13
2023-02-19T06:53:25.613Z,98538.41
2023-02-19T06:54:27.097Z,98544.78
2023-02-19T06:55:28.741Z,98539.03
2023-02-19T06:56:31.794Z,98543.09
2023-02-19T06:57:33.605Z,98539.47
2023-02-19T06:58:35.111Z,98541.13
2023-02-19T06:59:36.602Z,98543.50
2023-02-19T07:00:38.133Z,98535.47
2023-02-19T07:01:39.821Z,98533.22
2023-02-19T07:02:41.694Z,98534.06
2023-02-19T07:03:43.236Z,98525.09
2023-02-19T07:04:44.776Z,98531.47
2023-02-19T07:05:46.337Z,98536.06
2023-02-19T07:06:47.827Z,98541.72
2023-02-19T07:07:49.938Z,98533.97
2023-02-19T07:08:51.561Z,98535.44
2023-02-19T07:09:53.109Z,98543.59
2023-02-19T07:10:57.836Z,98545.34
2023-02-19T07:11:59.358Z,98539.88
2023-02-19T07:13:01.162Z,98546.38
2023-02-19T07:14:03.762Z,98543.09
2023-02-19T07:15:05.450Z,98543.19
2023-02-19T07:16:08.472Z,98548.66
2023-02-19T07:17:10.047Z,98550.78
2023-02-19T07:18:11.937Z,98545.72
2023-02-19T07:19:14.902Z,98545.56
2023-02-19T07:20:16.270Z,98559.34
2023-02-19T07:21:17.731Z,98547.34
2023-02-19T07:22:19.260Z,98551.09
2023-02-19T07:23:20.859Z,98558.97
2023-02-19T07:24:22.664Z,98559.88
2023-02-19T07:25:24.163Z,98557.53
2023-02-19T07:26:25.792Z,98555.47
2023-02-19T07:27:27.624Z,98561.50
2023-02-19T07:28:29.165Z,98566.91
2023-02-19T07:29:30.660Z,98575.94
2023-02-19T07:30:32.200Z,98571.63
2023-02-19T07:31:33.828Z,98570.63
2023-02-19T07:32:35.802Z,98559.44
2023-02-19T07:33:37.358Z,98563.63
2023-02-19T07:34:38.942Z,98571.44
2023-02-19T07:35:49.824Z,98560.94
2023-02-19T07:36:51.331Z,98585.25
2023-02-19T07:37:53.396Z,98578.81
2023-02-19T07:39:00.144Z,98577.97
2023-02-19T07:40:02.090Z,98580.19
2023-02-19T07:41:04.308Z,98567.63
2023-02-19T07:42:05.858Z,98577.56
2023-02-19T07:43:07.343Z,98579.91
2023-02-19T07:44:09.071Z,98578.22
2023-02-19T07:45:10.695Z,98583.63
2023-02-19T07:46:12.950Z,98583.75
2023-02-19T07:47:14.781Z,98586.06
2023-02-19T07:48:16.540Z,98589.25
2023-02-19T07:49:18.070Z,98570.41
2023-02-19T07:50:19.769Z,98601.97
2023-02-19T07:51:21.440Z,98587.94
2023-02-19T07:52:23.574Z,98573.91
2023-02-19T07:53:25.148Z,98585.75
2023-02-19T07:54:26.660Z,98580.88
2023-02-19T07:55:28.156Z,98583.81
2023-02-19T07:56:29.894Z,98564.31
2023-02-19T07:57:31.740Z,98564.41
2023-02-19T07:58:33.460Z,98571.94
2023-02-19T07:59:35.103Z,98578.91
2023-02-19T08:00:36.586Z,98566.97
2023-02-19T08:01:56.964Z,98582.69
2023-02-19T08:03:01.514Z,98567.25
2023-02-19T08:04:03.108Z,98584.09
2023-02-19T08:05:05.066Z,98567.59
2023-02-19T08:06:06.848Z,98584.56
2023-02-19T08:07:08.721Z,98587.44
2023-02-19T08:08:14.408Z,98582.78
2023-02-19T08:09:15.964Z,98591.00
2023-02-19T08:10:36.116Z,98586.34
2023-02-19T08:11:56.267Z,98591.25
2023-02-19T08:13:17.575Z,98579.56
2023-02-19T08:14:19.054Z,98598.19
2023-02-19T08:15:22.391Z,98615.88
2023-02-19T08:16:40.598Z,98601.66
2023-02-19T08:17:42.892Z,98614.19
2023-02-19T08:18:44.622Z,98604.63
2023-02-19T08:19:46.100Z,98615.34
2023-02-19T08:20:47.771Z,98596.78
2023-02-19T08:21:50.556Z,98607.75
2023-02-19T08:22:52.399Z,98614.63
2023-02-19T08:23:53.888Z,98616.63
2023-02-19T08:24:55.369Z,98617.88
2023-02-19T08:25:57.793Z,98613.69
2023-02-19T08:26:59.535Z,98609.72
2023-02-19T08:28:01.591Z,98603.50
2023-02-19T08:29:04.206Z,98615.47
2023-02-19T08:30:06.492Z,98605.47
2023-02-19T08:31:08.809Z,98622.84
2023-02-19T08:32:10.611Z,98594.59
2023-02-19T08:33:21.448Z,98616.41
2023-02-19T08:34:22.998Z,98611.38
2023-02-19T08:35:24.790Z,98615.88
2023-02-19T08:36:26.331Z,98636.50
2023-02-19T08:37:28.229Z,98634.34
2023-02-19T08:38:29.901Z,98625.22
2023-02-19T08:39:32.228Z,98634.31
2023-02-19T08:40:34.051Z,98617.81
2023-02-19T08:41:35.533Z,98628.66
2023-02-19T08:42:37.415Z,98631.63
2023-02-19T08:43:40.162Z,98637.81
2023-02-19T08:44:41.689Z,98631.38
2023-02-19T08:45:44.350Z,98632.91
2023-02-19T08:46:45.899Z,98633.78
2023-02-19T08:47:47.427Z,98643.56
2023-02-19T08:48:48.936Z,98642.03
2023-02-19T08:49:50.474Z,98636.19
2023-02-19T08:50:58.207Z,98652.50
2023-02-19T08:51:59.888Z,98646.06
2023-02-19T08:53:01.914Z,98642.47
2023-02-19T08:54:04.224Z,98652.03
2023-02-19T08:55:06.121Z,98635.88
2023-02-19T08:56:13.049Z,98663.91
2023-02-19T08:57:14.900Z,98655.38
2023-02-19T08:58:16.428Z,98652.53
2023-02-19T08:59:20.196Z,98651.13
2023-02-19T09:00:21.832Z,98646.75
2023-02-19T09:01:23.973Z,98649.22
2023-02-19T09:02:25.711Z,98651.94
2023-02-19T09:03:27.258Z,98642.53
2023-02-19T09:04:28.854Z,98647.94
2023-02-19T09:05:30.371Z,98653.34
2023-02-19T09:06:31.910Z,98659.75
2023-02-19T09:07:34.153Z,98662.19
2023-02-19T09:08:35.626Z,98656.91
2023-02-19T09:09:37.774Z,98664.44
2023-02-19T09:10:39.776Z,98665.50
2023-02-19T09:11:41.651Z,98674.34
2023-02-19T09:12:43.226Z,98674.41
2023-02-19T09:13:44.841Z,98674.06
2023-02-19T09:14:46.667Z,98676.09
2023-02-19T09:15:48.298Z,98664.78
2023-02-19T09:16:50.017Z,98678.34
2023-02-19T09:17:52.654Z,98681.16
2023-02-19T09:18:54.149Z,98673.50
2023-02-19T09:19:55.620Z,98676.31
2023-02-19T09:21:00.565Z,98684.81
2023-02-19T09:22:02.873Z,98683.03
2023-02-19T09:23:04.350Z,98684.91
2023-02-19T09:24:06.103Z,98688.41
2023-02-19T09:25:07.751Z,98688.19
2023-02-19T09:26:11.331Z,98703.19
2023-02-19T09:27:16.987Z,98700.31
2023-02-19T09:28:19.260Z,98700.91
2023-02-19T09:29:21.610Z,98700.91
2023-02-19T09:30:23.291Z,98695.75
2023-02-19T09:31:25.024Z,98701.63
2023-02-19T09:32:26.597Z,98707.28
2023-02-19T09:33:28.074Z,98718.38
2023-02-19T09:34:29.588Z,98701.28
2023-02-19T09:35:31.053Z,98704.22
2023-02-19T09:36:33.794Z,98708.72
2023-02-19T09:37:35.361Z,98712.34
2023-02-19T09:38:36.996Z,98710.03
2023-02-19T09:39:38.554Z,98713.00
2023-02-19T09:40:40.136Z,98704.75
2023-02-19T09:41:55.623Z,98710.81
2023-02-19T09:42:57.213Z,98695.59
2023-02-19T09:43:59.071Z,98720.09
2023-02-19T09:45:01.020Z,98717.13
2023-02-19T09:46:34.811Z,98721.44
2023-02-19T09:47:36.422Z,98713.13
2023-02-19T09:48:37.945Z,98709.16
2023-02-19T09:49:40.608Z,98701.47
2023-02-19T09:50:47.434Z,98711.38
2023-02-19T09:52:00.481Z,98706.00
2023-02-19T09:53:03.869Z,98705.00
2023-02-19T09:54:06.603Z,98716.00
2023-02-19T09:55:18.490Z,98725.22
2023-02-19T09:56:20.022Z,98719.91
2023-02-19T09:57:21.626Z,98705.66
2023-02-19T09:58:32.382Z,98710.44
2023-02-19T09:59:40.009Z,98719.19
2023-02-19T10:00:41.513Z,98708.38
2023-02-19T10:01:43.353Z,98709.56
2023-02-19T10:02:44.921Z,98709.88
2023-02-19T10:03:47.548Z,98710.38
2023-02-19T10:04:50.995Z,98726.16
2023-02-19T10:05:52.688Z,98701.44
2023-02-19T10:06:58.967Z,98712.16
2023-02-19T10:08:00.501Z,98696.94
2023-02-19T10:09:26.679Z,98712.88
2023-02-19T10:10:32.605Z,98710.50
2023-02-19T10:11:34.567Z,98708.38
2023-02-19T10:12:37.558Z,98710.63
2023-02-19T10:13:42.846Z,98709.69
2023-02-19T10:14:49.124Z,98722.91
2023-02-19T10:15:54.813Z,98705.31
2023-02-19T10:17:02.143Z,98720.50
2023-02-19T10:18:04.448Z,98715.00
2023-02-19T10:19:08.793Z,98717.75
2023-02-19T10:20:15.293Z,98723.03
2023-02-19T10:21:19.799Z,98725.63
2023-02-19T10:22:21.294Z,98729.09
2023-02-19T10:23:22.872Z,98726.78
2023-02-19T10:24:26.534Z,98737.13
2023-02-19T10:25:28.044Z,98733.38
2023-02-19T10:26:34.674Z,98740.97
2023-02-19T10:27:36.165Z,98740.59
2023-02-19T10:28:37.726Z,98739.03
2023-02-19T10:29:39.267Z,98741.63
2023-02-19T10:30:40.751Z,98738.03
2023-02-19T10:31:42.377Z,98740.06
2023-02-19T10:33:15.923Z,98737.81
2023-02-19T10:34:22.160Z,98737.00
2023-02-19T10:35:23.777Z,98735.84
2023-02-19T10:36:45.281Z,98736.66
2023-02-19T10:37:48.151Z,98747.56
2023-02-19T10:38:49.754Z,98750.16
2023-02-19T10:39:51.460Z,98739.34
2023-02-19T10:41:02.151Z,98731.09
2023-02-19T10:42:04.155Z,98737.50
2023-02-19T10:43:05.746Z,98746.66
2023-02-19T10:44:14.158Z,98748.03
2023-02-19T10:45:21.257Z,98747.38
2023-02-19T10:46:36.373Z,98749.50
2023-02-19T10:47:37.876Z,98764.84
2023-02-19T10:48:40.788Z,98765.69
2023-02-19T10:49:46.180Z,98762.97
2023-02-19T10:50:50.894Z,98763.22
2023-02-19T10:51:52.570Z,98759.16
2023-02-19T10:52:55.785Z,98761.13
2023-02-19T10:54:24.876Z,98769.28
2023-02-19T10:55:28.393Z,98766.69
2023-02-19T10:56:31.349Z,98767.31
2023-02-19T10:57:34.535Z,98766.50
2023-02-19T10:58:37.843Z,98773.09
2023-02-19T10:59:39.356Z,98757.63
2023-02-19T11:00:40.925Z,98763.66
2023-02-19T11:02:08.960Z,98788.88
2023-02-19T11:03:28.431Z,98779.34
2023-02-19T11:04:34.117Z,98773.22
2023-02-19T11:05:36.321Z,98784.06
2023-02-19T11:06:38.202Z,98779.56
2023-02-19T11:07:50.457Z,98781.91
2023-02-19T11:08:57.204Z,98776.84
2023-02-19T11:09:58.946Z,98783.69
2023-02-19T11:11:00.519Z,98789.31
2023-02-19T11:12:04.523Z,98786.94
2023-02-19T11:13:06.885Z,98788.47
2023-02-19T11:14:15.823Z,98781.31
2023-02-19T11:15:24.389Z,98789.00
2023-02-19T11:16:44.055Z,98788.53
2023-02-19T11:17:45.935Z,98786.16
2023-02-19T11:18:57.010Z,98789.44
2023-02-19T11:20:07.467Z,98780.03
2023-02-19T11:21:28.958Z,98790.91
2023-02-19T11:22:42.784Z,98795.00
2023-02-19T11:23:45.192Z,98792.63
2023-02-19T11:24:55.878Z,98784.84
2023-02-19T11:26:00.437Z,98787.44
2023-02-19T11:27:06.369Z,98785.44
2023-02-19T11:28:18.186Z,98793.50
2023-02-19T11:29:24.610Z,98790.69
2023-02-19T11:30:41.980Z,98793.94
2023-02-19T11:31:43.613Z,98784.88
2023-02-19T11:32:45.517Z,98787.38
2023-02-19T11:33:56.047Z,98789.34
2023-02-19T11:35:17.890Z,98800.94
2023-02-19T11:36:34.598Z,98794.69
2023-02-19T11:37:36.134Z,98789.72
2023-02-19T11:38:37.606Z,98796.28
2023-02-19T11:39:40.794Z,98788.63
2023-02-19T11:41:01.940Z,98803.47
2023-02-19T11:42:15.343Z,98798.09
2023-02-19T11:43:41.072Z,98805.56
2023-02-19T11:45:05.389Z,98802.34
2023-02-19T11:46:16.145Z,98796.56
2023-02-19T11:47:23.238Z,98810.94
2023-02-19T11:48:46.554Z,98799.19
2023-02-19T11:50:03.287Z,98793.66
2023-02-19T11:51:11.443Z,98803.66
2023-02-19T11:52:22.419Z,98802.69
2023-02-19T11:53:34.581Z,98796.75
2023-02-19T11:54:49.214Z,98796.38
2023-02-19T11:56:16.115Z,98802.34
2023-02-19T11:57:24.338Z,98809.97
2023-02-19T11:58:50.636Z,98800.69
2023-02-19T12:00:10.781Z,98809.06
2023-02-19T12:01:50.199Z,98803.75
2023-02-19T12:03:09.300Z,98813.25
2023-02-19T12:04:41.654Z,98810.78
2023-02-19T12:05:50.032Z,98824.94
2023-02-19T12:07:06.860Z,98824.13
2023-02-19T12:08:16.463Z,98829.94
2023-02-19T12:09:39.913Z,98830.16
2023-02-19T12:11:12.105Z,98829.81
2023-02-19T12:12:20.853Z,98831.34
2023-02-19T12:13:40.954Z,98829.56
2023-02-19T12:14:48.600Z,98831.34
2023-02-19T12:15:59.115Z,98828.09
2023-02-19T12:17:39.554Z,98828.00
2023-02-19T12:18:59.969Z,98837.63
2023-02-19T12:20:03.452Z,98846.59
2023-02-19T12:21:42.219Z,98828.84
2023-02-19T12:23:19.606Z,98826.13
2023-02-19T12:24:58.895Z,98822.84
2023-02-19T12:26:18.992Z,98820.06
2023-02-19T12:27:48.358Z,98818.63
2023-02-19T12:28:57.642Z,98816.56
2023-02-19T12:30:24.490Z,98821.88
2023-02-19T12:31:49.877Z,98830.81
2023-02-19T12:33:12.900Z,98837.03
2023-02-19T12:34:38.827Z,98821.31
2023-02-19T12:36:20.414Z,98814.13
2023-02-19T12:37:44.358Z,98802.06
2023-02-19T12:39:01.753Z,98805.63
2023-02-19T12:40:15.477Z,98814.13
2023-02-19T12:41:30.526Z,98822.63
2023-02-19T12:42:50.788Z,98808.59
2023-02-19T12:43:56.054Z,98816.25
2023-02-19T12:44:59.898Z,98811.31
2023-02-19T12:46:13.592Z,98808.59
2023-02-19T12:47:20.254Z,98817.84
2023-02-19T12:48:39.744Z,98832.78
2023-02-19T12:49:44.755Z,98814.69